Time;durP1;ratioP1;P1;durP2;ratioP2;P2;SDS_P1;SDS_P2;PMS_P1;PMS_P2;Temp;Humidity;BMP_temperature;BMP_pressure;BME280_temperature;BME280_humidity;BME280_pressure;Samples;Min_cycle;Max_cycle;Signal;HPM_P1;HPM_P2
2022/07/04 00:00:17;;;;;;;2.25;1.30;;;21.10;94.30;;;;;;5031943;28;20190;-63
2022/07/04 00:02:44;;;;;;;2.10;1.30;;;21.10;94.40;;;;;;5032249;28;20170;-62
2022/07/04 00:05:11;;;;;;;4.40;1.27;;;21.10;94.30;;;;;;5031937;28;20181;-63
2022/07/04 00:07:38;;;;;;;1.40;1.30;;;21.10;94.40;;;;;;5013323;28;20796;-62
2022/07/04 00:10:06;;;;;;;3.65;1.42;;;21.10;94.50;;;;;;5031533;28;20639;-62
2022/07/04 00:12:31;;;;;;;1.67;1.20;;;21.10;94.50;;;;;;5020033;28;20197;-63
2022/07/04 00:14:57;;;;;;;2.03;1.25;;;21.10;94.50;;;;;;5032220;28;20187;-63
2022/07/04 00:17:22;;;;;;;5.30;1.30;;;21.10;94.70;;;;;;5013707;28;20231;-63
2022/07/04 00:19:48;;;;;;;1.83;1.27;;;21.10;94.70;;;;;;5032051;28;20186;-63
2022/07/04 00:22:14;;;;;;;1.23;1.15;;;21.00;94.70;;;;;;5013312;28;20179;-62
2022/07/04 00:24:39;;;;;;;4.93;1.23;;;21.10;94.60;;;;;;5031966;28;20192;-63
2022/07/04 00:27:05;;;;;;;3.90;1.20;;;21.10;94.70;;;;;;5031316;28;20213;-62
2022/07/04 00:29:31;;;;;;;2.03;1.15;;;21.10;94.70;;;;;;5031308;28;20981;-63
2022/07/04 00:31:56;;;;;;;1.45;1.30;;;21.10;94.70;;;;;;5031033;28;20177;-63
2022/07/04 00:34:22;;;;;;;1.50;1.40;;;21.10;94.50;;;;;;5031640;28;20186;-63
2022/07/04 00:36:47;;;;;;;3.03;1.35;;;21.10;94.50;;;;;;5030615;28;20194;-64
2022/07/04 00:39:13;;;;;;;1.30;1.20;;;21.10;94.50;;;;;;5031710;28;20272;-63
2022/07/04 00:41:38;;;;;;;3.53;1.30;;;21.10;94.60;;;;;;5031367;28;20186;-62
2022/07/04 00:44:06;;;;;;;1.52;1.38;;;21.10;94.50;;;;;;5031111;28;20235;-63
2022/07/04 00:46:32;;;;;;;1.80;1.35;;;21.10;94.60;;;;;;5031145;28;20194;-63
2022/07/04 00:48:58;;;;;;;1.60;1.50;;;21.00;94.70;;;;;;5031700;28;20182;-63
2022/07/04 00:51:24;;;;;;;2.30;1.38;;;21.00;94.60;;;;;;5031292;28;20189;-63
2022/07/04 00:53:54;;;;;;;4.03;1.48;;;21.00;94.60;;;;;;5031119;28;20186;-63
2022/07/04 00:56:21;;;;;;;1.30;1.20;;;20.90;94.70;;;;;;5030226;28;20193;-63
2022/07/04 00:58:47;;;;;;;2.17;1.30;;;20.90;94.90;;;;;;5031419;28;20206;-63
2022/07/04 01:01:12;;;;;;;1.60;1.50;;;20.90;95.00;;;;;;5031186;28;20217;-64
2022/07/04 01:03:38;;;;;;;3.88;1.33;;;20.90;95.10;;;;;;5030769;28;20660;-62
2022/07/04 01:06:04;;;;;;;2.08;1.30;;;20.90;95.10;;;;;;5031097;28;20752;-62
2022/07/04 01:08:29;;;;;;;1.92;1.65;;;20.80;95.10;;;;;;5030703;28;20182;-62
2022/07/04 01:10:55;;;;;;;2.33;1.50;;;20.80;95.10;;;;;;5031328;28;20182;-62
2022/07/04 01:13:21;;;;;;;4.35;1.40;;;20.80;95.10;;;;;;5028998;28;20196;-62
2022/07/04 01:15:47;;;;;;;1.83;1.48;;;20.80;95.10;;;;;;5030438;28;20174;-62
2022/07/04 01:18:13;;;;;;;2.35;1.27;;;20.80;95.10;;;;;;5030788;28;20174;-63
2022/07/04 01:20:39;;;;;;;1.55;1.20;;;20.70;95.10;;;;;;5030777;28;20554;-63
2022/07/04 01:23:05;;;;;;;2.22;1.38;;;20.70;95.30;;;;;;5029447;28;20190;-62
2022/07/04 01:25:32;;;;;;;3.30;1.60;;;20.60;95.40;;;;;;5030804;28;20178;-63
2022/07/04 01:27:59;;;;;;;1.40;1.30;;;20.60;95.40;;;;;;5030905;28;20247;-62
2022/07/04 01:30:24;;;;;;;1.88;1.30;;;20.50;95.40;;;;;;5030828;28;20649;-63
2022/07/04 01:32:50;;;;;;;1.73;1.17;;;20.50;95.60;;;;;;5029595;28;20212;-62
2022/07/04 01:35:15;;;;;;;2.08;1.33;;;20.50;95.60;;;;;;5031131;28;20178;-64
2022/07/04 01:37:41;;;;;;;4.38;1.50;;;20.40;95.50;;;;;;5030754;28;20537;-63
2022/07/04 01:40:07;;;;;;;2.88;1.20;;;20.40;95.50;;;;;;5031036;28;20230;-63
2022/07/04 01:42:33;;;;;;;1.40;1.20;;;20.40;95.60;;;;;;5030582;28;20617;-62
2022/07/04 01:44:58;;;;;;;3.58;1.20;;;20.30;95.60;;;;;;5022401;28;20188;-62
2022/07/04 01:47:24;;;;;;;3.35;1.40;;;20.30;95.70;;;;;;5011633;28;20217;-62
2022/07/04 01:49:49;;;;;;;3.55;1.60;;;20.30;95.60;;;;;;5025622;28;20229;-63
2022/07/04 01:52:15;;;;;;;1.25;1.15;;;20.30;95.70;;;;;;5030952;28;20588;-63
2022/07/04 01:54:41;;;;;;;4.05;1.63;;;20.30;95.90;;;;;;5030893;28;20236;-63
2022/07/04 01:57:07;;;;;;;2.28;1.52;;;20.30;95.80;;;;;;5030923;28;20809;-62
2022/07/04 02:02:16;;;;;;;2.78;1.38;;;20.20;95.90;;;;;;5030387;28;20714;-63
2022/07/04 02:04:42;;;;;;;3.95;1.50;;;20.20;96.00;;;;;;5030758;28;20179;-63
2022/07/04 02:07:08;;;;;;;2.28;1.42;;;20.10;96.20;;;;;;5031331;28;20259;-63
2022/07/04 02:09:33;;;;;;;1.65;1.45;;;20.10;96.30;;;;;;5030308;28;20205;-62
2022/07/04 02:14:43;;;;;;;2.92;1.33;;;20.00;96.90;;;;;;5030837;28;20213;-63
2022/07/04 02:17:10;;;;;;;2.08;1.50;;;19.90;96.90;;;;;;5013271;28;20584;-62
2022/07/04 02:19:36;;;;;;;1.88;1.25;;;19.90;97.20;;;;;;5030268;28;20544;-63
2022/07/04 02:22:02;;;;;;;6.30;1.40;;;19.90;97.10;;;;;;5030753;28;20533;-63
2022/07/04 02:24:28;;;;;;;1.35;1.25;;;19.90;97.10;;;;;;5030821;28;20625;-63
2022/07/04 02:26:54;;;;;;;1.40;1.30;;;19.90;97.20;;;;;;5030749;28;20226;-63
2022/07/04 02:29:20;;;;;;;3.30;1.48;;;19.90;97.40;;;;;;5030264;28;20185;-62
2022/07/04 02:31:45;;;;;;;2.72;1.30;;;19.90;97.50;;;;;;5031130;28;20171;-62
2022/07/04 02:34:11;;;;;;;1.67;1.30;;;19.80;97.50;;;;;;5031070;28;20221;-62
2022/07/04 02:36:37;;;;;;;2.67;1.50;;;19.80;97.80;;;;;;5014250;28;20205;-62
2022/07/04 02:39:04;;;;;;;2.70;1.48;;;19.70;97.90;;;;;;5031512;28;20226;-62
2022/07/04 02:41:30;;;;;;;1.55;1.45;;;19.70;98.00;;;;;;5033139;28;20189;-62
2022/07/04 02:43:56;;;;;;;1.60;1.25;;;19.70;98.00;;;;;;5033495;28;20178;-62
2022/07/04 02:46:22;;;;;;;1.92;1.33;;;19.70;98.50;;;;;;5032917;28;20205;-62
2022/07/04 02:48:48;;;;;;;5.75;1.67;;;19.70;98.30;;;;;;5033912;28;20181;-62
2022/07/04 02:51:13;;;;;;;3.35;1.48;;;19.70;98.20;;;;;;5033219;28;20229;-63
2022/07/04 02:53:39;;;;;;;2.42;1.70;;;19.60;98.20;;;;;;5033071;28;20186;-62
2022/07/04 02:56:05;;;;;;;2.55;1.40;;;19.60;98.20;;;;;;5033422;28;20244;-62
2022/07/04 02:58:33;;;;;;;2.15;1.48;;;19.60;98.40;;;;;;5032748;28;20170;-62
2022/07/04 03:00:59;;;;;;;1.58;1.35;;;19.50;98.40;;;;;;5015419;28;20183;-62
2022/07/04 03:03:26;;;;;;;1.75;1.40;;;19.50;98.50;;;;;;5033112;28;20190;-62
2022/07/04 03:05:52;;;;;;;2.42;1.42;;;19.50;98.90;;;;;;5033346;28;20209;-62
2022/07/04 03:08:17;;;;;;;2.50;1.50;;;19.50;99.10;;;;;;5033441;28;20193;-63
2022/07/04 03:10:43;;;;;;;3.30;1.60;;;19.40;99.40;;;;;;5033587;28;20178;-62
2022/07/04 03:13:08;;;;;;;1.70;1.50;;;19.30;99.40;;;;;;5033434;28;20186;-62
2022/07/04 03:15:34;;;;;;;4.03;1.73;;;19.30;99.50;;;;;;5033228;28;20190;-62
2022/07/04 03:17:59;;;;;;;1.48;1.30;;;19.30;99.70;;;;;;5032993;28;20236;-62
2022/07/04 03:20:25;;;;;;;2.95;1.40;;;19.20;99.60;;;;;;5032957;28;20272;-63
2022/07/04 03:22:51;;;;;;;6.93;1.60;;;19.20;99.70;;;;;;5032821;28;20284;-63
2022/07/04 03:25:17;;;;;;;1.50;1.40;;;19.20;99.90;;;;;;5032759;28;20182;-63
2022/07/04 03:27:42;;;;;;;3.17;1.50;;;19.20;99.90;;;;;;5032660;28;20271;-63
2022/07/04 03:30:08;;;;;;;1.35;1.30;;;19.20;99.90;;;;;;5032232;28;20254;-63
2022/07/04 03:32:34;;;;;;;3.72;1.50;;;19.20;99.90;;;;;;5032359;28;20647;-65
2022/07/04 03:35:00;;;;;;;1.67;1.48;;;19.10;99.90;;;;;;5031825;28;20178;-64
2022/07/04 03:37:25;;;;;;;4.93;1.70;;;19.20;99.90;;;;;;5032459;28;20178;-64
2022/07/04 03:39:51;;;;;;;3.38;1.58;;;19.30;99.90;;;;;;5032498;28;20336;-66
2022/07/04 03:42:16;;;;;;;3.35;1.50;;;19.40;99.90;;;;;;5031320;28;20216;-64
2022/07/04 03:44:42;;;;;;;1.40;1.30;;;19.50;99.90;;;;;;5029780;28;20183;-64
2022/07/04 03:47:07;;;;;;;1.77;1.40;;;19.60;99.90;;;;;;5032523;28;20300;-64
2022/07/04 03:49:33;;;;;;;2.30;1.60;;;19.70;99.90;;;;;;5032207;28;20201;-64
2022/07/04 03:51:58;;;;;;;4.65;1.73;;;19.70;99.90;;;;;;5015124;28;20174;-62
2022/07/04 03:54:28;;;;;;;2.53;1.40;;;19.60;99.90;;;;;;5032414;28;20247;-62
2022/07/04 03:56:53;;;;;;;1.65;1.55;;;19.60;99.90;;;;;;5031462;28;20174;-63
2022/07/04 03:59:19;;;;;;;1.45;1.33;;;19.50;99.90;;;;;;5031957;28;20184;-64
2022/07/04 04:01:45;;;;;;;4.68;1.52;;;19.40;99.90;;;;;;5032477;28;20198;-64
2022/07/04 04:06:55;;;;;;;1.42;1.33;;;19.30;99.90;;;;;;5032866;28;20305;-62
2022/07/04 04:09:20;;;;;;;4.63;1.90;;;19.20;99.90;;;;;;5031930;28;20265;-62
2022/07/04 04:11:46;;;;;;;3.15;1.40;;;19.20;99.90;;;;;;5032765;28;20641;-62
2022/07/04 04:14:12;;;;;;;3.42;1.50;;;19.20;99.90;;;;;;5029604;28;20177;-62
2022/07/04 04:16:38;;;;;;;4.53;1.77;;;19.10;99.90;;;;;;5035973;28;20704;-61
2022/07/04 04:19:04;;;;;;;1.98;1.80;;;19.10;99.90;;;;;;5031703;28;20600;-63
2022/07/04 04:21:29;;;;;;;2.28;1.65;;;19.00;99.90;;;;;;5032368;28;20210;-62
2022/07/04 04:23:55;;;;;;;2.92;1.80;;;19.10;99.90;;;;;;5030874;28;20196;-64
2022/07/04 04:26:20;;;;;;;4.55;1.60;;;19.00;99.90;;;;;;5031307;28;20349;-63
2022/07/04 04:28:46;;;;;;;2.42;1.60;;;19.10;99.90;;;;;;5032224;28;20186;-64
2022/07/04 04:31:12;;;;;;;4.60;2.92;;;19.30;99.90;;;;;;5031232;28;20647;-64
2022/07/04 04:33:37;;;;;;;3.03;1.83;;;19.40;99.90;;;;;;5031354;28;20185;-63
2022/07/04 04:36:03;;;;;;;3.53;1.60;;;19.60;99.90;;;;;;5030813;28;20185;-63
2022/07/04 04:38:29;;;;;;;2.08;1.70;;;19.70;99.90;;;;;;5013457;28;20229;-63
2022/07/04 04:40:54;;;;;;;2.85;1.88;;;19.80;99.90;;;;;;5032311;28;20182;-63
2022/07/04 04:43:20;;;;;;;3.17;2.30;;;20.00;99.90;;;;;;5032090;28;20613;-63
2022/07/04 04:45:46;;;;;;;4.07;1.63;;;20.10;99.90;;;;;;5032470;28;20174;-63
2022/07/04 04:48:11;;;;;;;3.03;1.52;;;20.10;99.90;;;;;;5032182;28;20623;-63
2022/07/04 04:50:37;;;;;;;2.00;1.48;;;20.10;99.90;;;;;;5032189;28;20174;-63
2022/07/04 04:53:02;;;;;;;2.35;1.70;;;20.00;99.90;;;;;;5032163;28;20579;-63
2022/07/04 04:55:28;;;;;;;4.00;1.40;;;20.00;99.90;;;;;;5032039;28;20202;-63
2022/07/04 04:57:54;;;;;;;3.25;1.60;;;20.20;99.90;;;;;;5013671;28;20189;-63
2022/07/04 05:00:19;;;;;;;2.35;1.40;;;20.50;99.90;;;;;;5031950;28;20214;-63
2022/07/04 05:02:45;;;;;;;2.67;1.50;;;20.80;99.70;;;;;;5031943;28;20174;-63
2022/07/04 05:05:10;;;;;;;3.60;2.17;;;21.20;99.10;;;;;;5032158;28;20220;-63
2022/07/04 05:07:36;;;;;;;3.25;1.85;;;21.60;98.60;;;;;;5031842;28;20252;-63
2022/07/04 05:10:02;;;;;;;2.35;1.30;;;22.20;97.50;;;;;;5031918;28;20210;-63
2022/07/04 05:12:28;;;;;;;1.77;1.17;;;22.40;96.60;;;;;;5031738;28;20178;-63
2022/07/04 05:14:54;;;;;;;2.13;1.25;;;23.00;95.90;;;;;;5031902;28;20629;-63
2022/07/04 05:17:20;;;;;;;4.00;1.48;;;23.40;94.80;;;;;;5031656;28;20629;-63
2022/07/04 05:19:45;;;;;;;2.30;1.33;;;23.90;93.90;;;;;;5031586;28;20186;-63
2022/07/04 05:22:11;;;;;;;1.67;1.23;;;24.10;93.00;;;;;;5031704;28;20179;-63
2022/07/04 05:24:39;;;;;;;4.07;1.10;;;24.30;91.50;;;;;;5031711;28;20193;-64
2022/07/04 05:27:05;;;;;;;1.23;1.13;;;24.80;90.60;;;;;;5031648;28;20219;-63
2022/07/04 05:29:31;;;;;;;4.00;1.27;;;25.40;90.00;;;;;;5031791;28;20182;-63
2022/07/04 05:31:56;;;;;;;2.72;1.20;;;25.70;86.70;;;;;;5031860;28;20209;-63
2022/07/04 05:34:22;;;;;;;2.60;0.82;;;26.00;84.90;;;;;;5031494;28;20170;-64
2022/07/04 05:36:47;;;;;;;2.10;1.20;;;26.40;83.10;;;;;;5031586;28;20179;-64
2022/07/04 05:39:13;;;;;;;3.20;1.00;;;26.80;80.70;;;;;;5031429;28;20229;-64
2022/07/04 05:41:39;;;;;;;1.40;1.10;;;27.40;78.00;;;;;;5031618;28;20637;-63
2022/07/04 05:44:04;;;;;;;0.95;0.77;;;27.60;75.80;;;;;;5031522;28;20178;-64
2022/07/04 05:46:30;;;;;;;1.42;1.23;;;28.10;73.40;;;;;;5030210;28;20726;-64
2022/07/04 05:48:56;;;;;;;1.42;1.20;;;28.20;72.50;;;;;;5031665;28;20190;-64
2022/07/04 05:51:21;;;;;;;8.77;4.45;;;28.20;69.40;;;;;;5031409;28;20189;-64
2022/07/04 05:53:47;;;;;;;2.08;1.48;;;28.20;70.90;;;;;;5031631;28;20594;-64
2022/07/04 05:56:12;;;;;;;3.47;1.33;;;28.30;69.60;;;;;;5031405;28;20185;-64
2022/07/04 05:58:38;;;;;;;1.65;1.20;;;28.70;68.80;;;;;;5031530;28;20220;-65
2022/07/04 06:01:04;;;;;;;2.60;1.00;;;29.10;67.60;;;;;;5031545;28;20223;-65
2022/07/04 06:03:29;;;;;;;1.75;0.90;;;29.50;66.60;;;;;;5031370;28;20582;-65
2022/07/04 06:05:55;;;;;;;4.22;1.30;;;29.50;63.90;;;;;;5031647;28;20170;-65
2022/07/04 06:08:21;;;;;;;1.55;1.10;;;29.20;63.30;;;;;;5033110;28;20328;-66
2022/07/04 06:10:47;;;;;;;2.05;1.42;;;28.70;64.40;;;;;;5035393;28;20201;-65
2022/07/04 06:13:12;;;;;;;2.45;1.00;;;28.30;66.30;;;;;;5035204;28;20252;-65
2022/07/04 06:15:38;;;;;;;1.90;1.20;;;28.10;65.70;;;;;;5034999;28;20203;-65
2022/07/04 06:18:04;;;;;;;4.18;1.02;;;28.00;67.20;;;;;;5034907;28;20183;-65
2022/07/04 06:20:30;;;;;;;1.67;1.10;;;28.00;66.50;;;;;;5035240;28;20598;-65
2022/07/04 06:22:55;;;;;;;5.15;2.60;;;28.30;67.20;;;;;;5017282;28;20253;-64
2022/07/04 06:25:21;;;;;;;2.17;1.50;;;28.90;65.70;;;;;;5035163;28;20560;-65
2022/07/04 06:27:48;;;;;;;1.95;1.00;;;29.10;63.90;;;;;;5035129;28;20300;-64
2022/07/04 06:30:15;;;;;;;4.78;1.23;;;29.30;63.50;;;;;;5035050;28;20252;-65
2022/07/04 06:33:02;;;;;;;1.30;1.08;;;29.70;63.00;;;;;;5035045;28;20174;-65
2022/07/04 06:35:45;;;;;;;2.25;1.02;;;30.30;60.70;;;;;;5034894;28;20559;-65
2022/07/04 06:38:12;;;;;;;1.85;1.05;;;30.70;60.60;;;;;;5034792;28;20648;-65
2022/07/04 06:40:38;;;;;;;1.08;0.90;;;31.20;59.70;;;;;;5034923;28;20269;-65
2022/07/04 06:43:04;;;;;;;1.00;1.00;;;31.40;57.60;;;;;;5034753;28;20784;-65
2022/07/04 06:45:30;;;;;;;1.77;1.05;;;30.70;58.30;;;;;;5034869;28;20229;-65
2022/07/04 06:47:56;;;;;;;3.58;1.38;;;30.50;59.20;;;;;;5034774;28;20321;-65
2022/07/04 06:50:21;;;;;;;2.10;1.20;;;30.80;59.70;;;;;;5034577;28;20669;-65
2022/07/04 06:52:47;;;;;;;1.05;0.95;;;31.60;57.80;;;;;;5034921;28;20177;-65
2022/07/04 06:55:13;;;;;;;2.60;1.30;;;32.10;56.20;;;;;;5034810;28;20197;-65
2022/07/04 06:57:38;;;;;;;1.90;1.40;;;32.60;56.00;;;;;;5034479;28;20193;-65
2022/07/04 07:00:05;;;;;;;2.80;1.50;;;32.90;55.30;;;;;;5034409;28;20170;-65
2022/07/04 07:02:33;;;;;;;2.80;1.20;;;33.20;53.50;;;;;;5034398;28;20177;-65
2022/07/04 07:04:58;;;;;;;4.00;1.90;;;33.30;52.80;;;;;;5034576;28;20265;-65
2022/07/04 07:07:24;;;;;;;7.10;4.65;;;33.30;52.60;;;;;;5034276;28;20300;-65
2022/07/04 07:09:50;;;;;;;3.63;1.67;;;33.50;53.00;;;;;;5034362;28;20620;-65
2022/07/04 07:12:16;;;;;;;3.67;2.05;;;33.60;51.10;;;;;;5034324;28;20256;-65
2022/07/04 07:14:42;;;;;;;2.88;1.60;;;33.50;52.00;;;;;;5034171;28;20323;-65
2022/07/04 07:17:07;;;;;;;1.58;1.08;;;33.50;52.00;;;;;;5034260;28;20181;-65
2022/07/04 07:19:33;;;;;;;1.80;1.25;;;33.30;50.80;;;;;;5033081;28;20182;-65
2022/07/04 07:21:59;;;;;;;4.78;2.67;;;32.90;51.20;;;;;;5034225;28;20536;-65
2022/07/04 07:24:25;;;;;;;3.33;1.65;;;32.60;52.60;;;;;;5033861;28;20177;-65
2022/07/04 07:26:51;;;;;;;2.17;1.35;;;32.60;52.50;;;;;;5033919;28;20688;-65
2022/07/04 07:29:17;;;;;;;2.45;1.35;;;32.80;52.70;;;;;;5033908;28;20178;-65
2022/07/04 07:31:43;;;;;;;3.92;1.17;;;33.10;52.20;;;;;;5033803;28;20178;-65
2022/07/04 07:34:08;;;;;;;3.33;1.40;;;33.10;51.90;;;;;;5033920;28;20178;-65
2022/07/04 07:36:34;;;;;;;2.55;1.60;;;32.70;52.60;;;;;;5033800;28;20248;-65
2022/07/04 07:39:00;;;;;;;2.05;1.30;;;32.70;52.20;;;;;;5033806;28;20229;-65
2022/07/04 07:41:26;;;;;;;2.53;1.20;;;33.10;53.10;;;;;;5033552;28;20178;-65
2022/07/04 07:43:51;;;;;;;1.27;1.17;;;33.30;52.20;;;;;;5033759;28;20183;-65
2022/07/04 07:46:17;;;;;;;2.35;1.10;;;33.60;52.00;;;;;;5033454;28;20174;-65
2022/07/04 07:48:43;;;;;;;3.45;1.20;;;34.00;51.30;;;;;;5033531;28;20189;-65
2022/07/04 07:51:10;;;;;;;1.35;1.10;;;34.40;49.60;;;;;;5033667;28;20723;-65
2022/07/04 07:53:35;;;;;;;1.75;1.08;;;34.60;50.00;;;;;;5033632;28;20173;-65
2022/07/04 07:56:01;;;;;;;2.22;1.20;;;34.90;49.90;;;;;;5033363;28;20534;-65
2022/07/04 07:58:27;;;;;;;1.98;1.10;;;35.20;49.20;;;;;;5033470;28;20188;-65
2022/07/04 08:00:52;;;;;;;1.95;1.20;;;35.00;48.30;;;;;;5033421;28;20624;-65
2022/07/04 08:06:02;;;;;;;1.98;1.60;;;34.60;49.20;;;;;;5033133;28;20181;-65
2022/07/04 08:08:28;;;;;;;2.00;1.15;;;34.90;50.00;;;;;;5033243;28;20189;-65
2022/07/04 08:10:54;;;;;;;2.92;1.30;;;35.20;48.10;;;;;;5033298;28;20180;-65
2022/07/04 08:13:20;;;;;;;1.45;1.23;;;35.20;48.90;;;;;;5033094;28;20183;-66
2022/07/04 08:15:45;;;;;;;1.73;1.05;;;34.90;48.80;;;;;;5033204;28;20173;-65
2022/07/04 08:18:11;;;;;;;2.28;1.33;;;34.80;48.20;;;;;;5033028;28;20197;-65
2022/07/04 08:20:36;;;;;;;2.08;1.20;;;34.70;48.50;;;;;;5033004;28;20177;-65
2022/07/04 08:23:02;;;;;;;3.25;1.30;;;34.90;48.60;;;;;;5032872;28;20243;-65
2022/07/04 08:25:28;;;;;;;2.67;1.27;;;35.20;48.20;;;;;;5032816;28;20181;-65
2022/07/04 08:27:53;;;;;;;1.63;1.30;;;35.20;47.60;;;;;;5032853;28;20212;-66
2022/07/04 08:30:19;;;;;;;3.38;1.10;;;34.90;49.00;;;;;;5032871;28;20200;-65
2022/07/04 08:32:44;;;;;;;1.05;1.00;;;34.60;49.50;;;;;;5032711;28;20604;-65
2022/07/04 08:35:10;;;;;;;2.33;1.30;;;34.80;49.80;;;;;;5032864;28;20185;-65
2022/07/04 08:37:35;;;;;;;1.50;1.40;;;34.90;49.00;;;;;;5032566;28;20183;-66
2022/07/04 08:40:06;;;;;;;2.55;1.20;;;34.90;47.90;;;;;;5032427;28;20221;-65
2022/07/04 08:42:38;;;;;;;1.52;1.10;;;35.00;49.00;;;;;;5032579;28;20235;-65
2022/07/04 08:45:06;;;;;;;1.58;1.48;;;35.00;48.40;;;;;;5032510;28;20216;-65
2022/07/04 08:47:38;;;;;;;2.38;1.40;;;35.20;47.70;;;;;;5032365;28;20221;-65
2022/07/04 08:50:14;;;;;;;2.65;1.45;;;35.20;47.10;;;;;;5032478;28;20188;-65
2022/07/04 08:52:51;;;;;;;3.90;1.20;;;34.60;48.50;;;;;;5032565;28;20208;-65
2022/07/04 09:00:46;;;;;;;1.30;1.20;;;33.50;50.20;;;;;;5017765;28;20675;-65
2022/07/04 09:03:12;;;;;;;1.50;1.40;;;33.50;51.10;;;;;;5032115;28;20205;-65
2022/07/04 09:05:38;;;;;;;2.10;1.20;;;33.70;50.30;;;;;;5032206;28;20264;-64
2022/07/04 09:08:04;;;;;;;3.22;1.40;;;34.00;48.30;;;;;;5032017;28;20213;-65
2022/07/04 09:10:30;;;;;;;1.92;1.40;;;34.30;47.90;;;;;;5032139;28;20201;-65
2022/07/04 09:12:56;;;;;;;2.75;1.40;;;34.50;50.10;;;;;;5032069;28;20185;-65
2022/07/04 09:15:21;;;;;;;3.17;1.30;;;34.50;48.10;;;;;;5031969;28;20186;-65
2022/07/04 09:17:47;;;;;;;2.08;1.95;;;33.80;48.50;;;;;;5032101;28;20178;-65
2022/07/04 09:20:17;;;;;;;2.78;1.10;;;33.40;49.60;;;;;;5031987;28;20190;-65
2022/07/04 09:22:44;;;;;;;2.83;1.13;;;33.20;47.30;;;;;;5031932;28;20178;-64
2022/07/04 09:25:12;;;;;;;1.27;1.02;;;33.10;47.50;;;;;;5032006;28;20178;-65
2022/07/04 09:27:40;;;;;;;2.95;1.60;;;33.10;49.80;;;;;;5031681;28;20221;-65
2022/07/04 09:30:07;;;;;;;2.33;1.40;;;32.90;49.80;;;;;;5031858;28;20170;-65
2022/07/04 09:32:41;;;;;;;3.47;1.10;;;32.90;50.20;;;;;;5031759;28;20253;-65
2022/07/04 09:35:12;;;;;;;1.58;1.10;;;32.90;49.40;;;;;;5031837;28;20185;-65
2022/07/04 09:37:48;;;;;;;2.03;1.35;;;32.90;49.80;;;;;;5031802;28;20178;-65
2022/07/04 09:40:25;;;;;;;1.42;1.33;;;32.90;49.10;;;;;;5031539;28;20588;-65
2022/07/04 09:42:51;;;;;;;1.50;1.20;;;32.90;50.70;;;;;;5033996;28;20184;-65
2022/07/04 09:45:17;;;;;;;2.00;1.38;;;32.90;51.00;;;;;;5038436;28;20170;-65
2022/07/04 09:47:45;;;;;;;2.42;1.58;;;32.80;50.20;;;;;;5038162;28;20714;-65
2022/07/04 09:50:21;;;;;;;1.55;1.20;;;32.50;49.80;;;;;;5038230;28;20208;-65
2022/07/04 09:53:01;;;;;;;1.10;1.10;;;32.30;50.80;;;;;;5038455;28;20184;-65
2022/07/04 09:55:35;;;;;;;1.95;1.13;;;31.90;51.40;;;;;;5038339;28;20224;-65
2022/07/04 09:58:06;;;;;;;3.85;1.33;;;32.00;51.80;;;;;;5038129;28;20698;-64
2022/07/04 10:00:51;;;;;;;2.55;1.70;;;31.90;51.90;;;;;;5038429;28;20193;-65
2022/07/04 10:03:25;;;;;;;1.40;1.20;;;31.70;51.30;;;;;;5038140;28;20181;-65
2022/07/04 10:06:11;;;;;;;3.40;1.33;;;31.80;52.00;;;;;;5038245;28;20188;-64
2022/07/04 10:08:38;;;;;;;1.17;1.17;;;32.20;49.80;;;;;;5038058;28;20189;-65
2022/07/04 10:11:04;;;;;;;2.10;1.38;;;32.50;50.80;;;;;;5038064;28;20186;-65
2022/07/04 10:13:30;;;;;;;1.85;1.58;;;32.50;49.10;;;;;;5038018;28;20240;-65
2022/07/04 10:15:56;;;;;;;1.95;1.20;;;32.60;50.00;;;;;;5038027;28;20186;-65
2022/07/04 10:18:24;;;;;;;2.78;1.33;;;32.70;49.30;;;;;;5037746;28;20185;-65
2022/07/04 10:20:51;;;;;;;1.13;0.93;;;32.70;49.00;;;;;;5038020;28;20645;-64
2022/07/04 10:23:18;;;;;;;1.75;1.20;;;32.90;49.60;;;;;;5037817;28;20667;-65
2022/07/04 10:25:47;;;;;;;1.35;1.23;;;32.50;49.10;;;;;;5037805;28;20196;-64
2022/07/04 10:28:13;;;;;;;1.65;1.35;;;31.80;50.30;;;;;;5037859;28;20214;-65
2022/07/04 10:30:40;;;;;;;1.45;1.27;;;31.80;51.80;;;;;;5037908;28;20178;-65
2022/07/04 10:33:08;;;;;;;1.65;1.17;;;32.00;50.10;;;;;;5038000;28;20212;-64
2022/07/04 10:35:55;;;;;;;2.55;1.20;;;32.00;50.50;;;;;;5036579;28;20239;-65
2022/07/04 10:38:22;;;;;;;3.05;1.27;;;31.80;50.90;;;;;;5037602;28;20313;-64
2022/07/04 10:40:54;;;;;;;1.17;1.15;;;31.80;50.90;;;;;;5037883;28;20232;-64
2022/07/04 10:43:37;;;;;;;1.38;1.25;;;32.00;50.70;;;;;;5037807;28;20181;-65
2022/07/04 10:46:15;;;;;;;2.42;1.25;;;32.00;50.90;;;;;;5037742;28;20196;-64
2022/07/04 10:49:02;;;;;;;3.40;1.38;;;32.10;51.10;;;;;;5037499;28;20201;-64
2022/07/04 10:51:39;;;;;;;2.28;1.20;;;31.80;50.20;;;;;;5037650;28;20702;-64
2022/07/04 10:54:07;;;;;;;3.60;1.33;;;31.40;51.90;;;;;;5036023;28;20174;-64
2022/07/04 10:56:40;;;;;;;2.17;1.20;;;31.40;52.70;;;;;;5034095;28;20178;-64
2022/07/04 10:59:11;;;;;;;2.35;1.50;;;31.40;52.60;;;;;;5034440;28;20178;-64
2022/07/04 11:01:37;;;;;;;3.50;1.23;;;31.00;51.40;;;;;;5034564;28;20217;-64
2022/07/04 11:04:02;;;;;;;1.48;1.33;;;31.10;52.40;;;;;;5034393;28;20569;-64
2022/07/04 11:06:37;;;;;;;1.55;1.02;;;31.10;52.00;;;;;;5034332;28;20225;-65
2022/07/04 11:09:12;;;;;;;2.40;1.15;;;30.90;52.30;;;;;;5034557;28;20206;-64
2022/07/04 11:11:47;;;;;;;1.75;1.27;;;30.80;53.10;;;;;;5034322;28;20584;-64
2022/07/04 11:14:32;;;;;;;1.95;1.20;;;30.90;54.00;;;;;;5034274;28;20184;-65
2022/07/04 11:16:58;;;;;;;2.13;1.30;;;31.00;52.80;;;;;;5034289;28;20584;-64
2022/07/04 11:19:24;;;;;;;1.85;1.20;;;31.10;53.30;;;;;;5033940;28;20193;-64
2022/07/04 11:21:49;;;;;;;2.08;1.10;;;31.40;52.50;;;;;;5034291;28;20257;-64
2022/07/04 11:24:16;;;;;;;1.20;1.10;;;31.30;52.90;;;;;;5034120;28;20174;-64
2022/07/04 11:26:42;;;;;;;1.58;1.48;;;31.30;53.20;;;;;;5033928;28;20210;-64
2022/07/04 11:29:07;;;;;;;1.83;1.50;;;31.40;51.70;;;;;;5034026;28;20285;-64
2022/07/04 11:31:41;;;;;;;1.83;1.23;;;31.20;52.60;;;;;;5034018;28;20249;-64
2022/07/04 11:34:07;;;;;;;2.42;1.17;;;31.40;52.70;;;;;;5034078;28;20174;-64
2022/07/04 11:36:33;;;;;;;3.35;1.30;;;31.50;51.70;;;;;;5033887;28;20181;-64
2022/07/04 11:39:05;;;;;;;1.30;1.17;;;31.50;51.10;;;;;;5033688;28;20226;-64
2022/07/04 11:47:19;;;;;;;1.35;1.10;;;31.70;51.60;;;;;;5033876;28;20280;-64
2022/07/04 11:49:50;;;;;;;4.28;1.15;;;31.40;51.20;;;;;;5033457;28;20182;-64
2022/07/04 11:52:18;;;;;;;4.78;1.05;;;31.80;53.00;;;;;;5033641;28;20501;-65
2022/07/04 11:54:45;;;;;;;1.98;1.38;;;32.30;51.80;;;;;;5033461;28;20576;-64
2022/07/04 11:57:15;;;;;;;1.40;1.30;;;32.50;49.50;;;;;;5033476;28;20182;-64
2022/07/04 11:59:41;;;;;;;3.08;1.38;;;32.50;50.20;;;;;;5033478;28;20946;-64
2022/07/04 12:02:15;;;;;;;2.13;1.20;;;32.50;48.90;;;;;;5033443;28;20601;-64
2022/07/04 12:04:42;;;;;;;2.65;1.10;;;32.60;51.30;;;;;;5033172;28;20182;-65
2022/07/04 12:07:13;;;;;;;5.53;1.40;;;32.70;49.80;;;;;;5033006;28;20308;-64
2022/07/04 12:09:40;;;;;;;4.07;1.20;;;32.80;51.20;;;;;;5033402;28;20178;-64
2022/07/04 12:12:06;;;;;;;2.05;1.30;;;32.70;50.60;;;;;;5033190;28;20178;-64
2022/07/04 12:14:32;;;;;;;1.15;1.10;;;32.70;49.80;;;;;;5033071;28;20210;-64
2022/07/04 12:17:15;;;;;;;1.65;1.30;;;32.70;48.40;;;;;;5033210;28;20206;-65
2022/07/04 12:19:54;;;;;;;2.45;1.20;;;32.80;48.80;;;;;;5032997;28;20185;-64
2022/07/04 12:22:31;;;;;;;1.67;1.20;;;32.30;49.20;;;;;;5033139;28;20748;-64
2022/07/04 12:24:57;;;;;;;2.10;1.10;;;32.00;50.50;;;;;;5033043;28;20265;-64
2022/07/04 12:27:24;;;;;;;1.90;1.27;;;31.90;49.90;;;;;;5032688;28;20220;-64
2022/07/04 12:29:51;;;;;;;2.15;1.10;;;32.00;49.90;;;;;;5033061;28;20208;-65
2022/07/04 12:32:18;;;;;;;1.55;1.23;;;32.00;50.10;;;;;;5032857;28;20178;-64
2022/07/04 12:34:44;;;;;;;3.95;1.52;;;31.70;50.80;;;;;;5032665;28;20707;-64
2022/07/04 12:37:16;;;;;;;1.60;1.17;;;31.60;51.80;;;;;;5015086;28;20178;-64
2022/07/04 12:39:43;;;;;;;3.97;1.30;;;31.70;53.10;;;;;;5032388;28;20245;-64
2022/07/04 12:42:09;;;;;;;1.40;1.25;;;32.20;50.40;;;;;;5032761;28;20204;-64
2022/07/04 12:44:36;;;;;;;2.13;1.23;;;32.50;50.00;;;;;;5032571;28;20178;-64
2022/07/04 12:47:03;;;;;;;1.25;1.15;;;32.40;50.00;;;;;;5032478;28;20213;-64
2022/07/04 12:49:29;;;;;;;1.10;1.10;;;32.20;49.60;;;;;;5032349;28;20268;-64
2022/07/04 12:52:13;;;;;;;2.20;1.30;;;32.00;49.00;;;;;;5032546;28;20261;-64
2022/07/04 12:54:39;;;;;;;1.33;1.23;;;31.60;49.30;;;;;;5032475;28;20166;-64
2022/07/04 12:57:07;;;;;;;1.58;1.17;;;31.70;49.80;;;;;;5032171;28;20236;-65
2022/07/04 12:59:33;;;;;;;2.97;1.25;;;31.90;49.90;;;;;;5032329;28;20166;-65
2022/07/04 13:01:59;;;;;;;4.32;1.30;;;32.00;49.70;;;;;;5032362;28;20228;-64
2022/07/04 13:04:24;;;;;;;2.70;1.30;;;32.20;48.90;;;;;;5031930;28;20182;-64
2022/07/04 13:06:50;;;;;;;3.45;2.08;;;32.30;49.10;;;;;;5032249;28;20209;-64
2022/07/04 13:09:16;;;;;;;4.10;1.65;;;32.40;47.70;;;;;;5032132;28;20253;-64